Time;durP1;ratioP1;P1;durP2;ratioP2;P2;SDS_P1;SDS_P2;PMS_P1;PMS_P2;Temp;Humidity;BMP_temperature;BMP_pressure;BME280_temperature;BME280_humidity;BME280_pressure;Samples;Min_cycle;Max_cycle;Signal;HPM_P1;HPM_P2
2021/07/23 00:01:39;;;;;;;11.57;7.67;;;;;;;25.62;55.07;98151.47;5033529;28;20234;-68
2021/07/23 00:04:06;;;;;;;11.50;7.20;;;;;;;25.62;56.18;98145.16;5033877;28;20202;-70
2021/07/23 00:06:33;;;;;;;10.87;7.20;;;;;;;25.64;56.05;98142.97;5042803;28;20200;-70
2021/07/23 00:09:00;;;;;;;11.63;7.43;;;;;;;25.88;55.23;98152.72;5030372;28;20207;-71
2021/07/23 00:11:28;;;;;;;14.87;7.67;;;;;;;25.91;54.99;98154.06;5033296;28;20202;-70
2021/07/23 00:13:55;;;;;;;11.87;7.50;;;;;;;25.89;55.30;98150.81;5035278;28;20209;-69
2021/07/23 00:16:24;;;;;;;13.57;8.13;;;;;;;25.86;54.23;98149.50;5031457;28;20237;-71
2021/07/23 00:18:51;;;;;;;10.60;7.20;;;;;;;25.79;54.89;98157.22;5041987;28;20872;-70
2021/07/23 00:21:18;;;;;;;11.97;7.97;;;;;;;25.76;55.42;98152.38;5045653;28;20212;-71
2021/07/23 00:23:45;;;;;;;13.13;7.93;;;;;;;25.46;56.59;98139.09;5042629;28;20206;-70
2021/07/23 00:26:13;;;;;;;12.77;7.57;;;;;;;25.64;56.04;98138.28;5047479;28;20211;-71
2021/07/23 00:28:41;;;;;;;12.57;8.13;;;;;;;25.55;56.30;98133.78;5031265;28;20276;-71
2021/07/23 00:31:08;;;;;;;13.77;7.47;;;;;;;25.69;55.52;98140.97;5040635;28;20241;-70
2021/07/23 00:33:37;;;;;;;10.53;7.23;;;;;;;25.29;56.33;98136.00;5043170;28;20207;-71
2021/07/23 00:36:05;;;;;;;12.90;7.90;;;;;;;25.22;57.73;98127.34;5047529;28;20236;-70
2021/07/23 00:38:32;;;;;;;11.27;7.50;;;;;;;25.35;56.75;98134.03;5044938;28;20209;-69
2021/07/23 00:40:59;;;;;;;10.90;7.47;;;;;;;25.53;56.33;98136.00;5047536;28;20204;-71
2021/07/23 00:43:26;;;;;;;12.43;7.33;;;;;;;25.52;56.11;98134.38;5032900;28;20227;-70
2021/07/23 00:45:54;;;;;;;11.50;7.70;;;;;;;25.24;58.06;98137.97;5038007;28;20197;-71
2021/07/23 00:48:22;;;;;;;10.40;6.97;;;;;;;24.95;58.64;98131.75;5047772;28;20208;-70
2021/07/23 00:50:51;;;;;;;10.67;7.00;;;;;;;25.29;57.34;98132.50;5039022;28;20201;-70
2021/07/23 00:53:18;;;;;;;11.43;6.87;;;;;;;25.27;56.95;98132.78;5031355;28;20239;-71
2021/07/23 00:55:55;;;;;;;13.40;6.93;;;;;;;25.38;56.43;98128.00;5033988;28;20238;-71
2021/07/23 00:58:22;;;;;;;12.67;7.33;;;;;;;25.43;56.14;98128.75;5049244;28;20265;-71
2021/07/23 01:00:50;;;;;;;12.37;7.33;;;;;;;25.49;55.92;98121.31;5046321;28;20216;-70
2021/07/23 01:03:17;;;;;;;13.03;7.60;;;;;;;25.26;56.51;98127.59;5038052;28;20729;-71
2021/07/23 01:05:45;;;;;;;10.40;7.07;;;;;;;25.51;56.11;98119.06;5043857;28;20680;-70
2021/07/23 01:08:13;;;;;;;10.83;7.33;;;;;;;25.52;55.69;98120.69;5032267;28;20669;-70
2021/07/23 01:10:41;;;;;;;11.83;7.60;;;;;;;25.28;56.83;98123.47;5029935;28;20213;-69
2021/07/23 01:13:08;;;;;;;12.23;6.93;;;;;;;24.91;58.71;98123.34;5043661;28;20224;-71
2021/07/23 01:15:35;;;;;;;10.13;6.70;;;;;;;25.11;57.66;98117.66;5040807;28;20554;-70
2021/07/23 01:18:03;;;;;;;10.20;6.37;;;;;;;25.14;56.94;98122.50;5031701;28;20585;-69
2021/07/23 01:20:30;;;;;;;10.93;7.07;;;;;;;25.23;56.47;98122.69;5049969;28;20213;-71
2021/07/23 01:23:00;;;;;;;12.57;7.37;;;;;;;25.38;56.82;98123.34;5042479;28;20227;-70
2021/07/23 01:25:28;;;;;;;13.10;7.00;;;;;;;25.13;57.17;98120.88;5046981;28;20209;-70
2021/07/23 01:27:57;;;;;;;15.13;7.50;;;;;;;24.94;58.19;98122.72;5042276;28;20204;-71
2021/07/23 01:30:25;;;;;;;14.43;7.27;;;;;;;25.20;57.89;98115.91;5037872;28;20219;-70
2021/07/23 01:32:53;;;;;;;11.40;7.07;;;;;;;25.11;57.70;98116.81;5031682;28;20240;-71
2021/07/23 01:35:21;;;;;;;10.43;6.73;;;;;;;25.19;57.88;98108.78;5047810;28;20314;-70
2021/07/23 01:37:49;;;;;;;10.90;7.17;;;;;;;25.12;57.72;98118.44;5044125;28;20212;-71
2021/07/23 01:40:17;;;;;;;10.47;7.70;;;;;;;25.15;57.85;98118.69;5047402;28;20218;-70
2021/07/23 01:42:46;;;;;;;12.50;7.43;;;;;;;25.30;57.72;98107.63;5044303;28;20225;-70
2021/07/23 01:45:16;;;;;;;14.10;7.57;;;;;;;25.16;57.08;98119.50;5035553;28;20648;-71
2021/07/23 01:47:43;;;;;;;11.30;6.80;;;;;;;25.23;57.43;98109.84;5032547;28;20280;-71
2021/07/23 01:50:11;;;;;;;12.37;7.03;;;;;;;25.18;56.87;98107.16;5045494;28;20207;-70
2021/07/23 01:52:38;;;;;;;14.73;7.87;;;;;;;24.70;59.20;98108.28;5034258;28;20317;-70
2021/07/23 01:55:06;;;;;;;12.40;7.37;;;;;;;24.61;59.33;98106.44;5037536;28;20206;-71
2021/07/23 01:57:34;;;;;;;11.73;7.77;;;;;;;24.69;59.40;98103.09;5045331;28;20215;-70
2021/07/23 02:00:04;;;;;;;11.00;6.63;;;;;;;24.90;59.29;98105.31;5048418;28;20213;-70
2021/07/23 02:02:34;;;;;;;9.97;7.00;;;;;;;25.10;58.80;98107.00;5043511;28;20611;-71
2021/07/23 02:05:02;;;;;;;10.93;6.87;;;;;;;25.20;58.01;98104.97;5040460;28;20235;-71
2021/07/23 02:07:29;;;;;;;11.47;7.20;;;;;;;25.16;57.86;98106.66;5035741;28;20216;-71
2021/07/23 02:09:57;;;;;;;12.67;7.50;;;;;;;25.21;57.62;98101.13;5037347;28;20290;-71
2021/07/23 02:12:24;;;;;;;12.83;7.23;;;;;;;25.12;59.05;98104.78;5046908;28;20222;-71
2021/07/23 02:14:52;;;;;;;14.50;8.17;;;;;;;25.36;57.34;98108.34;5044218;28;20214;-71
2021/07/23 02:17:21;;;;;;;10.47;7.23;;;;;;;25.25;57.34;98099.47;5047561;28;20625;-71
2021/07/23 02:19:48;;;;;;;9.37;7.00;;;;;;;25.05;58.99;98096.13;5043256;28;20671;-72
2021/07/23 02:22:15;;;;;;;12.73;7.30;;;;;;;25.38;56.96;98103.41;5039672;28;20234;-71
2021/07/23 02:24:42;;;;;;;11.03;7.03;;;;;;;25.38;57.33;98097.94;5038009;28;20208;-70
2021/07/23 02:27:12;;;;;;;12.10;7.43;;;;;;;25.51;55.98;98098.03;5050670;28;20202;-72
2021/07/23 02:29:39;;;;;;;12.00;6.73;;;;;;;25.20;57.20;98093.22;5045346;28;20205;-71
2021/07/23 02:32:07;;;;;;;19.23;6.83;;;;;;;24.86;58.57;98101.53;5049911;28;20234;-71
2021/07/23 02:34:36;;;;;;;12.23;7.43;;;;;;;24.86;59.38;98096.09;5034334;28;20772;-71
2021/07/23 02:37:03;;;;;;;11.00;7.20;;;;;;;25.07;58.71;98091.19;5041636;28;20231;-70
2021/07/23 02:39:30;;;;;;;14.83;8.23;;;;;;;25.00;59.49;98091.56;5045014;28;20211;-70
2021/07/23 02:41:58;;;;;;;9.90;7.20;;;;;;;25.14;59.21;98086.19;5050218;28;20230;-71
2021/07/23 02:44:25;;;;;;;15.07;8.07;;;;;;;24.83;60.10;98084.94;5046022;28;20209;-71
2021/07/23 02:46:52;;;;;;;12.40;6.87;;;;;;;24.86;60.31;98089.78;5050330;28;20210;-70
2021/07/23 02:49:19;;;;;;;17.00;8.13;;;;;;;24.87;60.24;98086.00;5037173;28;20215;-70
2021/07/23 02:51:48;;;;;;;13.70;7.23;;;;;;;24.86;59.89;98084.34;5039511;28;20229;-70
2021/07/23 02:54:15;;;;;;;11.90;7.37;;;;;;;24.78;60.52;98076.81;5043434;28;20217;-70
2021/07/23 02:56:43;;;;;;;12.43;7.47;;;;;;;24.75;60.66;98080.91;5037683;28;20224;-70
2021/07/23 02:59:10;;;;;;;11.37;7.03;;;;;;;24.21;63.57;98074.88;5040351;28;20218;-70
2021/07/23 03:01:37;;;;;;;14.53;9.77;;;;;;;24.31;63.82;98077.50;5048927;28;20230;-70
2021/07/23 03:04:05;;;;;;;12.33;7.67;;;;;;;24.58;62.71;98068.78;5041682;28;20207;-71
2021/07/23 03:06:32;;;;;;;11.37;7.37;;;;;;;24.47;62.33;98076.25;5049249;28;20203;-71
2021/07/23 03:09:01;;;;;;;13.40;7.77;;;;;;;24.70;61.77;98072.78;5046643;28;20559;-69
2021/07/23 03:11:28;;;;;;;13.87;6.83;;;;;;;24.72;61.36;98069.78;5035600;28;20547;-70
2021/07/23 03:13:55;;;;;;;9.70;6.80;;;;;;;24.72;61.77;98073.28;5040521;28;20204;-71
2021/07/23 03:16:23;;;;;;;9.77;7.17;;;;;;;24.58;62.42;98068.78;5047508;28;20323;-71
2021/07/23 03:18:50;;;;;;;11.50;7.80;;;;;;;24.43;62.85;98061.56;5047600;28;20204;-71
2021/07/23 03:21:21;;;;;;;11.40;7.50;;;;;;;24.21;63.87;98063.13;5048948;28;20203;-71
2021/07/23 03:23:49;;;;;;;14.80;8.07;;;;;;;24.29;63.42;98060.63;5044564;28;20203;-72
2021/07/23 03:26:19;;;;;;;13.33;7.80;;;;;;;24.42;63.10;98059.94;5032616;28;20211;-71
2021/07/23 03:28:46;;;;;;;12.90;7.20;;;;;;;24.33;63.59;98060.84;5037591;28;20285;-69
2021/07/23 03:31:14;;;;;;;11.53;7.47;;;;;;;24.32;63.28;98054.56;5046813;28;20211;-71
2021/07/23 03:33:41;;;;;;;10.33;7.27;;;;;;;24.42;63.19;98059.13;5045320;28;20673;-71
2021/07/23 03:36:09;;;;;;;12.80;7.47;;;;;;;24.50;62.40;98058.50;5047460;28;20585;-70
2021/07/23 03:38:36;;;;;;;10.50;6.90;;;;;;;24.58;62.28;98052.41;5044803;28;20284;-69
2021/07/23 03:41:04;;;;;;;13.00;7.80;;;;;;;24.62;61.85;98054.31;5029195;28;20207;-71
2021/07/23 03:43:33;;;;;;;10.80;7.17;;;;;;;24.49;62.29;98056.88;5041101;28;20222;-71
2021/07/23 03:46:00;;;;;;;12.50;7.57;;;;;;;24.54;62.15;98054.09;5049126;28;20202;-70
2021/07/23 03:48:27;;;;;;;11.07;7.50;;;;;;;24.25;63.54;98053.28;5043707;28;20217;-71
2021/07/23 03:50:55;;;;;;;12.57;7.97;;;;;;;24.10;64.29;98062.44;5044915;28;20206;-71
2021/07/23 03:53:22;;;;;;;12.90;7.60;;;;;;;24.13;64.65;98052.84;5043650;28;20222;-71
2021/07/23 03:55:49;;;;;;;11.57;7.23;;;;;;;24.18;64.14;98061.00;5033572;28;20205;-71
2021/07/23 03:58:17;;;;;;;11.17;7.20;;;;;;;24.18;65.01;98061.00;5045019;28;20206;-71
2021/07/23 04:00:45;;;;;;;12.70;7.50;;;;;;;24.39;63.61;98063.25;5044679;28;20316;-71
2021/07/23 04:03:13;;;;;;;10.93;7.27;;;;;;;24.49;62.40;98060.44;5044786;28;20228;-70
2021/07/23 04:05:40;;;;;;;15.80;7.67;;;;;;;24.27;63.49;98064.75;5044994;28;20349;-72
2021/07/23 04:08:07;;;;;;;11.93;7.50;;;;;;;24.14;64.19;98065.38;5046272;28;20218;-69
2021/07/23 04:10:34;;;;;;;13.97;7.50;;;;;;;24.21;63.46;98063.97;5033276;28;20211;-73
2021/07/23 04:13:02;;;;;;;15.83;9.17;;;;;;;24.20;63.32;98065.06;5044642;28;20240;-71
2021/07/23 04:15:29;;;;;;;11.23;7.60;;;;;;;24.08;64.14;98066.53;5048928;28;20676;-69
2021/07/23 04:17:58;;;;;;;15.80;7.47;;;;;;;24.24;64.16;98066.13;5040232;28;20691;-72
2021/07/23 04:20:25;;;;;;;13.87;7.77;;;;;;;24.26;64.14;98063.91;5050627;28;20719;-72
2021/07/23 04:22:52;;;;;;;14.17;8.03;;;;;;;24.46;63.55;98074.63;5045297;28;20225;-70
2021/07/23 04:25:20;;;;;;;11.53;7.50;;;;;;;24.52;63.25;98072.69;5032847;28;20210;-72
2021/07/23 04:27:47;;;;;;;13.40;7.90;;;;;;;24.67;62.25;98072.56;5043702;28;20565;-71
2021/07/23 04:30:16;;;;;;;14.40;8.13;;;;;;;24.35;63.71;98070.38;5041997;28;20204;-71
2021/07/23 04:32:43;;;;;;;11.47;7.37;;;;;;;24.08;64.67;98074.72;5049252;28;20337;-71
2021/07/23 04:35:13;;;;;;;12.70;7.67;;;;;;;24.58;63.17;98066.06;5043351;28;20207;-71
2021/07/23 04:37:40;;;;;;;10.80;6.93;;;;;;;24.59;62.29;98073.19;5033325;28;20222;-70
2021/07/23 04:40:09;;;;;;;15.13;7.13;;;;;;;24.89;61.01;98081.03;5032480;28;20234;-71
2021/07/23 04:42:36;;;;;;;11.23;6.63;;;;;;;24.90;61.83;98078.03;5037614;28;20222;-70
2021/07/23 04:45:05;;;;;;;12.63;7.50;;;;;;;24.55;62.07;98074.81;5042762;28;20214;-71
2021/07/23 04:47:33;;;;;;;12.77;7.47;;;;;;;24.49;62.48;98076.81;5040503;28;20588;-71
2021/07/23 04:50:01;;;;;;;12.50;7.03;;;;;;;24.92;61.03;98077.72;5046008;28;20195;-72
2021/07/23 04:52:30;;;;;;;13.27;8.07;;;;;;;24.81;61.74;98079.75;5031744;28;20286;-72
2021/07/23 04:54:59;;;;;;;10.83;7.67;;;;;;;24.56;62.12;98082.72;5032280;28;20948;-73
2021/07/23 04:57:28;;;;;;;10.33;7.40;;;;;;;24.72;60.92;98081.50;5032398;28;20310;-74
2021/07/23 04:59:56;;;;;;;12.20;7.90;;;;;;;24.99;60.63;98086.38;5026985;28;20238;-74
2021/07/23 05:02:23;;;;;;;12.33;7.70;;;;;;;25.34;59.34;98085.97;5032499;28;20239;-73
2021/07/23 05:04:51;;;;;;;13.40;7.93;;;;;;;25.83;57.24;98105.47;5032741;28;20274;-70
2021/07/23 05:07:18;;;;;;;10.87;7.40;;;;;;;25.93;55.77;98099.91;5032176;28;20199;-72
2021/07/23 05:09:47;;;;;;;13.50;7.37;;;;;;;25.40;57.84;98091.09;5032414;28;20200;-71
2021/07/23 05:12:15;;;;;;;16.10;8.10;;;;;;;25.76;56.74;98096.84;5032529;28;20228;-70
2021/07/23 05:14:43;;;;;;;16.03;7.77;;;;;;;26.56;54.28;98107.34;5032555;28;20270;-70
2021/07/23 05:17:10;;;;;;;12.70;7.80;;;;;;;26.82;52.63;98099.50;5032577;28;20600;-72
2021/07/23 05:19:38;;;;;;;9.87;7.10;;;;;;;27.16;50.58;98097.19;5041912;28;20198;-71
2021/07/23 05:22:07;;;;;;;8.60;6.40;;;;;;;26.33;52.59;98105.53;5042840;28;20227;-72
2021/07/23 05:24:34;;;;;;;16.03;8.00;;;;;;;26.58;51.62;98096.09;5031711;28;20265;-71
2021/07/23 05:27:03;;;;;;;11.73;7.90;;;;;;;26.35;53.44;98092.34;5042074;28;20206;-71
2021/07/23 05:29:30;;;;;;;12.93;7.80;;;;;;;26.03;54.83;98091.53;5041762;28;20209;-71
2021/07/23 05:31:58;;;;;;;12.87;7.30;;;;;;;27.17;50.89;98096.06;5046221;28;20226;-71
2021/07/23 05:34:25;;;;;;;10.83;7.23;;;;;;;27.30;50.14;98090.59;5035053;28;20209;-70
2021/07/23 05:36:52;;;;;;;14.47;7.17;;;;;;;26.79;51.46;98097.34;5042131;28;20222;-71
2021/07/23 05:39:19;;;;;;;12.57;7.23;;;;;;;26.96;51.97;98092.91;5032154;28;20198;-71
2021/07/23 05:41:47;;;;;;;11.87;7.13;;;;;;;27.03;51.28;98092.50;5038742;28;20698;-70
2021/07/23 05:44:15;;;;;;;12.67;7.03;;;;;;;27.40;50.03;98097.78;5042012;28;20213;-72
2021/07/23 05:46:43;;;;;;;16.93;7.80;;;;;;;26.97;51.46;98105.50;5040359;28;20225;-76
2021/07/23 05:49:10;;;;;;;12.80;7.43;;;;;;;27.44;50.39;98093.31;5043041;28;20218;-75
2021/07/23 05:51:37;;;;;;;10.90;7.23;;;;;;;26.92;50.26;98099.28;5045854;28;20215;-77
2021/07/23 05:54:04;;;;;;;15.13;7.73;;;;;;;27.22;49.56;98098.72;5031389;28;20203;-76
2021/07/23 05:56:32;;;;;;;10.27;6.93;;;;;;;26.55;52.10;98096.69;5044362;28;20207;-72
2021/07/23 05:58:59;;;;;;;12.00;7.30;;;;;;;27.01;50.48;98094.75;5030190;28;20333;-72
2021/07/23 06:01:27;;;;;;;11.57;7.30;;;;;;;27.40;49.37;98098.59;5033067;28;20218;-78
2021/07/23 06:03:55;;;;;;;9.73;6.67;;;;;;;27.59;48.48;98099.28;5047166;28;20200;-73
2021/07/23 06:06:22;;;;;;;10.60;7.00;;;;;;;27.41;49.00;98100.22;5032710;28;20207;-75
2021/07/23 06:08:49;;;;;;;10.90;7.13;;;;;;;26.41;52.26;98095.84;5038160;28;20732;-77
2021/07/23 06:11:17;;;;;;;11.53;7.57;;;;;;;27.60;49.05;98102.81;5033564;28;20217;-78
2021/07/23 06:13:44;;;;;;;11.53;7.47;;;;;;;27.09;50.38;98100.31;5050501;28;20213;-73
2021/07/23 06:16:13;;;;;;;11.20;7.33;;;;;;;28.24;46.18;98102.44;5038699;28;20213;-73
2021/07/23 06:18:41;;;;;;;14.80;7.70;;;;;;;27.80;47.16;98113.38;5042328;28;20312;-76
2021/07/23 06:21:09;;;;;;;11.13;7.47;;;;;;;28.12;45.75;98108.50;5043917;28;20211;-79
2021/07/23 06:23:36;;;;;;;11.83;6.87;;;;;;;27.80;47.17;98114.19;5041666;28;20695;-77
2021/07/23 06:26:04;;;;;;;11.97;7.07;;;;;;;27.09;50.00;98092.09;5030420;28;20195;-74
2021/07/23 06:28:31;;;;;;;11.00;7.53;;;;;;;27.49;48.99;98101.44;5036117;28;20207;-76
2021/07/23 06:31:02;;;;;;;12.07;7.90;;;;;;;27.50;48.54;98100.31;5034016;28;20289;-76
2021/07/23 06:33:29;;;;;;;11.77;6.60;;;;;;;28.44;45.87;98096.47;5040652;28;20233;-77
2021/07/23 06:36:01;;;;;;;12.97;7.67;;;;;;;26.84;50.26;98102.72;5036758;28;20202;-72
2021/07/23 06:38:30;;;;;;;12.60;7.80;;;;;;;27.60;46.81;98100.91;5039963;28;20219;-71
2021/07/23 06:40:57;;;;;;;11.13;7.80;;;;;;;28.54;45.31;98096.22;5031095;28;20207;-71
2021/07/23 06:43:25;;;;;;;10.57;7.13;;;;;;;27.50;48.48;98097.56;5036598;28;20237;-72
2021/07/23 06:45:53;;;;;;;12.57;7.73;;;;;;;27.55;48.21;98095.53;5027385;28;20202;-70
2021/07/23 06:48:23;;;;;;;12.07;7.10;;;;;;;27.57;48.30;98089.75;5028893;28;20647;-70
2021/07/23 06:50:50;;;;;;;11.93;7.90;;;;;;;28.28;46.77;98095.22;5035604;28;20209;-70
2021/07/23 06:53:20;;;;;;;11.10;7.17;;;;;;;29.42;43.04;98110.53;5036813;28;20336;-70
2021/07/23 06:55:47;;;;;;;11.33;8.03;;;;;;;29.61;42.38;98104.78;5042766;28;20203;-70
2021/07/23 06:58:15;;;;;;;13.73;8.33;;;;;;;29.07;44.02;98097.00;5034172;28;20862;-70
2021/07/23 07:00:42;;;;;;;11.30;6.93;;;;;;;29.40;42.31;98109.25;5023627;28;20217;-70
2021/07/23 07:03:09;;;;;;;12.27;8.30;;;;;;;28.58;44.62;98102.72;5031309;28;20221;-70
2021/07/23 07:05:37;;;;;;;15.80;8.07;;;;;;;27.91;47.04;98101.88;5032933;28;20209;-71
2021/07/23 07:08:05;;;;;;;11.30;7.67;;;;;;;27.90;46.60;98096.69;5030291;28;20208;-71
2021/07/23 07:10:34;;;;;;;14.73;8.53;;;;;;;29.84;41.41;98100.78;5038107;28;20202;-71
2021/07/23 07:13:08;;;;;;;11.47;7.67;;;;;;;28.47;44.14;98101.34;5031085;28;20777;-72
2021/07/23 07:15:38;;;;;;;12.90;7.77;;;;;;;29.07;44.46;98092.31;5031085;28;20206;-71
2021/07/23 07:18:09;;;;;;;14.70;8.60;;;;;;;27.09;49.52;98094.84;5027981;28;20227;-72
2021/07/23 07:20:36;;;;;;;15.70;8.80;;;;;;;26.94;50.89;98081.44;5041482;28;20698;-70
2021/07/23 07:23:04;;;;;;;13.60;8.63;;;;;;;27.64;48.75;98081.91;5030951;28;20233;-70
2021/07/23 07:25:33;;;;;;;16.70;8.90;;;;;;;28.45;45.75;98085.19;5048365;28;20204;-70
2021/07/23 07:28:04;;;;;;;12.07;8.47;;;;;;;28.15;45.22;98085.91;5031728;28;20693;-71
2021/07/23 07:30:31;;;;;;;14.20;8.30;;;;;;;29.07;43.39;98092.31;5034188;28;20222;-70
2021/07/23 07:33:02;;;;;;;13.33;8.60;;;;;;;29.50;42.32;98089.69;5041025;28;20635;-70
2021/07/23 07:35:35;;;;;;;16.93;9.07;;;;;;;27.96;45.75;98096.25;5049715;28;20214;-70
2021/07/23 07:38:16;;;;;;;13.40;8.67;;;;;;;29.06;43.76;98090.69;5033455;28;20236;-70
2021/07/23 07:40:45;;;;;;;12.47;8.30;;;;;;;30.18;40.33;98098.03;5031639;28;20295;-71
2021/07/23 07:43:14;;;;;;;15.60;8.57;;;;;;;28.28;45.45;98085.03;5029490;28;20228;-70
2021/07/23 07:45:42;;;;;;;16.23;8.07;;;;;;;29.16;43.20;98092.34;5031721;28;20204;-71
2021/07/23 07:48:10;;;;;;;13.40;8.50;;;;;;;28.63;44.32;98081.41;5031945;28;20199;-71
2021/07/23 07:50:38;;;;;;;11.23;7.97;;;;;;;30.24;40.69;98088.47;5039724;28;20217;-71
2021/07/23 07:53:09;;;;;;;16.23;7.80;;;;;;;30.35;40.44;98095.28;5047000;28;20236;-71
2021/07/23 07:55:36;;;;;;;14.38;8.18;;;;;;;29.31;42.59;98089.97;5040377;28;20260;-70
2021/07/23 07:58:05;;;;;;;14.00;8.60;;;;;;;30.87;39.56;98085.78;5026476;28;20229;-71
2021/07/23 08:00:32;;;;;;;12.50;8.27;;;;;;;30.70;40.14;98088.59;5033108;28;20210;-70
2021/07/23 08:03:00;;;;;;;12.45;8.68;;;;;;;31.87;36.95;98095.84;5042380;28;20233;-70
2021/07/23 08:05:27;;;;;;;12.48;8.65;;;;;;;30.00;40.81;98091.69;5040917;28;20233;-70
2021/07/23 08:07:59;;;;;;;13.45;9.32;;;;;;;27.79;46.17;98076.09;5039380;28;20677;-70
2021/07/23 08:10:26;;;;;;;13.68;8.68;;;;;;;29.33;41.69;98084.13;5043088;28;20202;-70
2021/07/23 08:12:54;;;;;;;14.60;8.45;;;;;;;29.30;40.95;98087.53;5033207;28;20232;-71
2021/07/23 08:15:23;;;;;;;13.82;8.27;;;;;;;30.56;38.84;98077.72;5047206;28;20210;-74
2021/07/23 08:17:50;;;;;;;15.77;8.95;;;;;;;29.31;41.60;98080.91;5049484;28;20774;-75
2021/07/23 08:20:18;;;;;;;15.13;9.18;;;;;;;30.25;39.85;98077.13;5038328;28;20585;-73
2021/07/23 08:22:45;;;;;;;12.93;7.95;;;;;;;30.32;38.11;98082.16;5042918;28;20230;-73
2021/07/23 08:25:13;;;;;;;12.65;8.88;;;;;;;31.60;36.44;98071.47;5037524;28;20235;-73
2021/07/23 08:27:41;;;;;;;17.05;8.95;;;;;;;31.20;35.98;98095.06;5025451;28;20210;-73
2021/07/23 08:30:09;;;;;;;15.05;8.27;;;;;;;29.51;41.42;98064.63;5038156;28;20309;-73
2021/07/23 08:32:38;;;;;;;11.43;7.85;;;;;;;31.28;38.10;98069.41;5042591;28;20226;-73
2021/07/23 08:35:06;;;;;;;15.00;8.40;;;;;;;31.03;37.44;98073.88;5037755;28;20202;-73
2021/07/23 08:37:33;;;;;;;16.38;8.90;;;;;;;30.54;38.08;98070.91;5036042;28;20234;-72
2021/07/23 08:40:04;;;;;;;11.32;7.88;;;;;;;31.05;37.28;98070.78;5029905;28;20203;-74
2021/07/23 08:42:33;;;;;;;17.38;8.45;;;;;;;31.30;36.51;98072.63;5035204;28;20850;-74
2021/07/23 08:45:02;;;;;;;19.83;8.68;;;;;;;30.61;37.18;98065.75;5046215;28;20199;-74
2021/07/23 08:47:29;;;;;;;13.85;9.00;;;;;;;31.86;35.72;98067.41;5040500;28;20213;-76
2021/07/23 08:49:59;;;;;;;12.73;8.00;;;;;;;32.51;34.56;98066.66;5032128;28;20199;-73
2021/07/23 08:52:39;;;;;;;14.48;8.50;;;;;;;31.02;36.92;98061.22;5023996;28;20223;-72
2021/07/23 08:55:07;;;;;;;12.20;7.93;;;;;;;30.87;37.21;98063.72;5031088;28;20559;-72
2021/07/23 08:57:35;;;;;;;17.52;8.27;;;;;;;32.19;34.81;98071.00;5031821;28;20297;-72
2021/07/23 09:00:06;;;;;;;16.17;9.25;;;;;;;29.97;37.43;98066.75;5025427;28;20206;-72
2021/07/23 09:02:56;;;;;;;14.00;8.40;;;;;;;30.38;37.59;98067.06;5037429;28;20225;-71
2021/07/23 09:05:27;;;;;;;15.73;8.52;;;;;;;29.91;37.27;98070.81;5037356;28;20297;-72
2021/07/23 09:07:55;;;;;;;14.38;7.95;;;;;;;31.03;36.23;98067.53;5024800;28;20195;-72
2021/07/23 09:10:23;;;;;;;14.13;8.45;;;;;;;30.75;36.18;98067.16;5026182;28;20203;-73
2021/07/23 09:12:52;;;;;;;12.27;8.05;;;;;;;30.91;37.38;98067.44;5026629;28;20316;-71
2021/07/23 09:15:21;;;;;;;13.40;8.32;;;;;;;31.65;34.72;98066.56;5032557;28;20293;-70
2021/07/23 09:17:49;;;;;;;11.77;8.30;;;;;;;32.86;32.71;98077.03;5032007;28;20222;-70
2021/07/23 09:20:19;;;;;;;11.95;8.00;;;;;;;30.89;36.45;98061.44;5036894;28;20222;-70
2021/07/23 09:22:49;;;;;;;15.57;9.00;;;;;;;30.51;36.93;98060.56;5032078;28;20233;-71
2021/07/23 09:25:32;;;;;;;17.80;9.07;;;;;;;32.29;34.57;98061.53;5043231;28;20270;-71
2021/07/23 09:27:59;;;;;;;14.55;9.45;;;;;;;31.67;33.92;98063.47;5033815;28;20205;-71
2021/07/23 09:30:42;;;;;;;13.38;7.78;;;;;;;33.11;31.22;98069.56;5022416;28;20574;-71
2021/07/23 09:33:09;;;;;;;10.95;7.80;;;;;;;31.64;33.14;98066.91;5028447;28;20273;-72
2021/07/23 09:35:37;;;;;;;17.10;8.57;;;;;;;30.80;35.13;98064.22;5032338;28;20198;-72
2021/07/23 09:38:05;;;;;;;17.25;8.60;;;;;;;30.83;35.72;98057.25;5039662;28;20566;-72
2021/07/23 09:40:43;;;;;;;12.50;8.13;;;;;;;30.69;37.04;98053.88;5031894;28;20210;-71
2021/07/23 09:43:10;;;;;;;13.20;8.50;;;;;;;32.36;34.16;98045.19;5019603;28;20313;-71
2021/07/23 09:45:38;;;;;;;13.45;7.90;;;;;;;33.46;32.29;98054.94;5043502;28;20201;-71
2021/07/23 09:48:10;;;;;;;12.90;8.32;;;;;;;33.41;31.20;98059.91;5027314;28;20420;-72
2021/07/23 09:50:39;;;;;;;13.63;8.50;;;;;;;34.23;30.54;98060.06;5034621;28;20209;-71
2021/07/23 09:53:10;;;;;;;15.93;9.13;;;;;;;34.17;29.83;98067.03;5043492;28;20226;-71
2021/07/23 09:55:39;;;;;;;13.20;7.88;;;;;;;33.16;31.24;98053.56;5032745;28;20199;-76
2021/07/23 09:58:08;;;;;;;12.88;7.95;;;;;;;33.90;30.41;98053.94;5021952;28;20227;-72
2021/07/23 10:00:39;;;;;;;13.38;8.18;;;;;;;33.34;31.76;98037.56;5034058;28;20682;-74
2021/07/23 10:03:13;;;;;;;12.88;8.05;;;;;;;32.44;32.99;98036.03;5027167;28;20294;-71
2021/07/23 10:05:47;;;;;;;12.60;8.50;;;;;;;32.47;32.89;98033.38;5031937;28;20208;-72
2021/07/23 10:08:24;;;;;;;10.50;8.02;;;;;;;33.00;32.92;98027.72;5041246;28;20208;-73
2021/07/23 10:10:52;;;;;;;11.70;8.43;;;;;;;33.87;30.68;98035.28;5027616;28;20206;-72
2021/07/23 10:13:23;;;;;;;12.75;8.65;;;;;;;32.38;32.89;98020.81;5018316;28;20227;-74
2021/07/23 10:15:50;;;;;;;11.85;8.25;;;;;;;31.89;33.63;98014.28;5039131;28;20201;-73
2021/07/23 10:18:18;;;;;;;15.15;9.23;;;;;;;32.78;32.71;98008.81;5028565;28;20230;-73
2021/07/23 10:20:47;;;;;;;11.00;8.82;;;;;;;31.37;34.12;98012.22;5026995;28;20210;-73
2021/07/23 10:23:19;;;;;;;14.90;8.10;;;;;;;32.48;32.37;98004.59;5030985;28;20276;-74
2021/07/23 10:25:49;;;;;;;12.82;8.45;;;;;;;32.55;32.84;97999.31;5034971;28;20674;-74
2021/07/23 10:28:54;;;;;;;12.07;8.13;;;;;;;34.02;31.73;97998.53;5046677;28;20206;-73
2021/07/23 10:31:41;;;;;;;14.10;8.50;;;;;;;33.70;30.67;98007.81;5039214;28;20266;-75
2021/07/23 10:34:10;;;;;;;11.02;7.97;;;;;;;34.34;30.14;98005.78;5028542;28;20209;-72
2021/07/23 10:36:38;;;;;;;12.23;7.97;;;;;;;35.16;29.22;98001.13;5033749;28;20206;-74
2021/07/23 10:39:13;;;;;;;15.55;7.90;;;;;;;34.99;30.29;97992.41;5039966;28;20229;-74
2021/07/23 10:41:42;;;;;;;13.23;8.65;;;;;;;34.62;30.42;97989.88;5036631;28;20220;-74
2021/07/23 10:44:12;;;;;;;14.82;8.45;;;;;;;34.94;29.77;97987.13;5051420;28;20716;-73
2021/07/23 10:47:03;;;;;;;12.02;8.18;;;;;;;32.21;32.87;97979.50;5055584;28;20197;-73
2021/07/23 10:49:49;;;;;;;10.27;7.80;;;;;;;31.87;33.83;97968.84;5020535;28;20670;-75
2021/07/23 10:52:34;;;;;;;12.48;7.72;;;;;;;31.70;34.42;97963.41;5036826;28;20230;-74
2021/07/23 10:55:16;;;;;;;12.50;7.82;;;;;;;32.62;33.71;97963.63;5034722;28;20308;-74
2021/07/23 10:57:43;;;;;;;12.02;8.75;;;;;;;32.17;33.27;97964.78;5033152;28;20213;-74
2021/07/23 11:00:11;;;;;;;12.02;7.80;;;;;;;34.05;31.29;97970.09;5042662;28;20718;-74
2021/07/23 11:02:59;;;;;;;14.32;8.13;;;;;;;33.37;31.46;97973.19;5036937;28;20232;-74
2021/07/23 11:05:29;;;;;;;9.98;7.80;;;;;;;33.60;31.56;97958.47;5040860;28;20305;-74
2021/07/23 11:07:58;;;;;;;11.15;7.60;;;;;;;33.78;31.26;97959.00;5031468;28;20210;-74
2021/07/23 11:10:27;;;;;;;10.95;7.57;;;;;;;32.86;32.48;97957.31;5036750;28;20268;-75
2021/07/23 11:12:55;;;;;;;10.02;8.05;;;;;;;31.76;34.23;97943.59;5051837;28;20220;-76
2021/07/23 11:15:23;;;;;;;14.88;7.63;;;;;;;33.71;31.47;97942.97;5041137;28;20215;-75
2021/07/23 11:18:14;;;;;;;13.73;9.10;;;;;;;31.22;35.17;97943.88;5051858;28;20202;-76
2021/07/23 11:20:41;;;;;;;13.68;8.57;;;;;;;32.40;33.64;97935.63;5031371;28;20208;-76
2021/07/23 11:23:10;;;;;;;9.45;7.90;;;;;;;32.98;32.74;97940.72;5033011;28;20232;-75
2021/07/23 11:25:39;;;;;;;11.27;7.47;;;;;;;33.45;31.63;97941.81;5041055;28;20209;-75
2021/07/23 11:28:08;;;;;;;12.55;7.97;;;;;;;34.95;29.92;97941.59;5043933;28;20671;-76
2021/07/23 11:30:37;;;;;;;14.55;7.57;;;;;;;34.77;29.60;97948.66;5047111;28;20202;-74
2021/07/23 11:33:06;;;;;;;11.43;7.28;;;;;;;36.65;27.43;97943.59;5037544;28;20226;-74
2021/07/23 11:35:40;;;;;;;10.93;7.57;;;;;;;37.50;25.91;97937.34;5050892;28;20221;-73